首页
METAR-TAF:

METAR-TAF

机场 :

Chumphon, 泰国

纬度: 10-42-40N, 经度: 099-21-42E, 海拔: 5米

当前天气观测

该预报发布于1小时和8分钟前的05:00 UTC
风速7节,风向东转东北,在北转东北之间变化
温度 27°C
湿度 89%
气压 1013 hPa
能見度: 8000
多云层高于2000英尺

METAR: VTSE 120500Z 06007KT 020V090 8000 BKN020 27/25 Q1013 NOSIG

时间: 13:08 (06:08 UTC)

预报

该预报发布于1小时和8分钟前的05:00 UTC
预报有效从12日的 06点(UTC)到 13日的 06点(UTC)
风速8节,风向东转东北
能见度10公里或以上
散云层高于2000英尺
多云层高于10000英尺
短暂存在
从 12日的 06点(UTC)到 12日的 12点(UTC)
能見度: 5000
散云层高于1500英尺
多云层高于10000英尺

TAF: VTSE 120500Z 1206/1306 06008KT 9999 SCT020 BKN100 TEMPO 1206/1212 5000 RA SCT015 BKN100

超过4000个机场的气象观测和天气预报(METAR&TAF报告)。

可查询的气象台以黄色和红色小点在地图上表示。

将鼠标移到小点上方,可查看气象台名称。

然后点击查看天气观测和预报。

如需切换地图:点击带黑十字的绿色按钮放大地图;点击带横线的绿色按钮缩小地图;或者点击绿色箭头查看邻近地区的地图。


METAR-TAF: